sensor_id;sensor_type;location;lat;lon;timestamp;pressure;altitude;pressure_sealevel;temperature;humidity
22580;BME280;11456;47.030;15.396;2022-10-13T00:00:12;98244.84;;;12.69;93.22
22580;BME280;11456;47.030;15.396;2022-10-13T00:02:39;98252.09;;;12.68;92.97
22580;BME280;11456;47.030;15.396;2022-10-13T00:05:05;98242.31;;;12.67;92.45
22580;BME280;11456;47.030;15.396;2022-10-13T00:07:32;98246.56;;;12.70;92.48
22580;BME280;11456;47.030;15.396;2022-10-13T00:09:58;98239.53;;;12.59;92.54
22580;BME280;11456;47.030;15.396;2022-10-13T00:12:25;98233.13;;;12.60;92.36
22580;BME280;11456;47.030;15.396;2022-10-13T00:14:51;98233.63;;;12.46;92.64
22580;BME280;11456;47.030;15.396;2022-10-13T00:17:18;98241.31;;;12.41;92.81
22580;BME280;11456;47.030;15.396;2022-10-13T00:19:44;98237.03;;;12.48;92.62
22580;BME280;11456;47.030;15.396;2022-10-13T00:22:11;98235.59;;;12.44;91.95
22580;BME280;11456;47.030;15.396;2022-10-13T00:24:38;98235.94;;;12.31;92.70
22580;BME280;11456;47.030;15.396;2022-10-13T00:27:05;98229.19;;;12.18;93.05
22580;BME280;11456;47.030;15.396;2022-10-13T00:29:33;98219.69;;;12.14;93.48
22580;BME280;11456;47.030;15.396;2022-10-13T00:31:59;98227.78;;;12.14;93.80
22580;BME280;11456;47.030;15.396;2022-10-13T00:34:26;98223.50;;;12.21;93.55
22580;BME280;11456;47.030;15.396;2022-10-13T00:36:52;98225.59;;;12.27;93.35
22580;BME280;11456;47.030;15.396;2022-10-13T00:39:19;98221.59;;;12.31;93.38
22580;BME280;11456;47.030;15.396;2022-10-13T00:41:45;98223.63;;;12.29;93.19
22580;BME280;11456;47.030;15.396;2022-10-13T00:46:57;98211.41;;;12.25;92.61
22580;BME280;11456;47.030;15.396;2022-10-13T00:49:23;98210.28;;;12.18;92.67
22580;BME280;11456;47.030;15.396;2022-10-13T00:51:50;98212.84;;;12.19;92.46
22580;BME280;11456;47.030;15.396;2022-10-13T00:54:17;98216.69;;;12.17;92.66
22580;BME280;11456;47.030;15.396;2022-10-13T00:56:45;98210.47;;;12.07;92.56
22580;BME280;11456;47.030;15.396;2022-10-13T00:59:14;98210.75;;;12.03;92.43
22580;BME280;11456;47.030;15.396;2022-10-13T01:01:48;98205.28;;;11.95;92.72
22580;BME280;11456;47.030;15.396;2022-10-13T01:04:15;98205.66;;;12.00;92.93
22580;BME280;11456;47.030;15.396;2022-10-13T01:06:42;98206.78;;;12.08;93.22
22580;BME280;11456;47.030;15.396;2022-10-13T01:09:11;98211.28;;;12.17;93.24
22580;BME280;11456;47.030;15.396;2022-10-13T01:14:31;98195.66;;;11.83;93.22
22580;BME280;11456;47.030;15.396;2022-10-13T01:17:44;98198.63;;;11.80;93.35
22580;BME280;11456;47.030;15.396;2022-10-13T01:30:14;98196.69;;;11.53;94.65
22580;BME280;11456;47.030;15.396;2022-10-13T01:32:49;98192.13;;;11.63;94.24
22580;BME280;11456;47.030;15.396;2022-10-13T01:35:23;98189.88;;;11.49;94.92
22580;BME280;11456;47.030;15.396;2022-10-13T01:37:56;98183.91;;;11.46;95.48
22580;BME280;11456;47.030;15.396;2022-10-13T01:40:29;98189.88;;;11.40;96.01
22580;BME280;11456;47.030;15.396;2022-10-13T01:43:03;98192.84;;;11.46;95.63
22580;BME280;11456;47.030;15.396;2022-10-13T01:45:36;98194.47;;;11.39;95.14
22580;BME280;11456;47.030;15.396;2022-10-13T01:48:06;98193.59;;;11.39;96.27
22580;BME280;11456;47.030;15.396;2022-10-13T01:50:39;98195.28;;;11.40;95.53
22580;BME280;11456;47.030;15.396;2022-10-13T01:53:06;98184.06;;;11.35;94.84
22580;BME280;11456;47.030;15.396;2022-10-13T01:55:32;98194.16;;;11.42;94.50
22580;BME280;11456;47.030;15.396;2022-10-13T01:57:59;98192.59;;;11.30;94.82
22580;BME280;11456;47.030;15.396;2022-10-13T02:00:25;98187.06;;;11.32;95.18
22580;BME280;11456;47.030;15.396;2022-10-13T02:02:55;98180.25;;;11.37;94.56
22580;BME280;11456;47.030;15.396;2022-10-13T02:05:33;98182.25;;;11.25;94.76
22580;BME280;11456;47.030;15.396;2022-10-13T02:08:10;98178.53;;;11.26;94.60
22580;BME280;11456;47.030;15.396;2022-10-13T02:13:10;98171.47;;;11.16;95.19
22580;BME280;11456;47.030;15.396;2022-10-13T02:15:39;98173.47;;;11.23;94.60
22580;BME280;11456;47.030;15.396;2022-10-13T02:18:06;98167.63;;;11.28;93.71
22580;BME280;11456;47.030;15.396;2022-10-13T02:20:33;98165.38;;;11.23;93.70
22580;BME280;11456;47.030;15.396;2022-10-13T02:23:09;98170.63;;;11.15;93.65
22580;BME280;11456;47.030;15.396;2022-10-13T02:25:37;98174.44;;;11.22;93.09
22580;BME280;11456;47.030;15.396;2022-10-13T02:28:03;98166.34;;;11.22;94.14
22580;BME280;11456;47.030;15.396;2022-10-13T02:30:33;98170.03;;;11.21;93.45
22580;BME280;11456;47.030;15.396;2022-10-13T02:33:01;98173.44;;;11.14;92.77
22580;BME280;11456;47.030;15.396;2022-10-13T02:35:28;98174.88;;;11.08;93.53
22580;BME280;11456;47.030;15.396;2022-10-13T02:37:59;98172.91;;;10.91;93.54
22580;BME280;11456;47.030;15.396;2022-10-13T02:40:25;98172.34;;;10.97;93.90
22580;BME280;11456;47.030;15.396;2022-10-13T02:42:52;98176.31;;;11.03;94.02
22580;BME280;11456;47.030;15.396;2022-10-13T02:45:19;98173.75;;;11.01;94.26
22580;BME280;11456;47.030;15.396;2022-10-13T02:47:47;98180.00;;;10.92;93.96
22580;BME280;11456;47.030;15.396;2022-10-13T02:50:13;98174.75;;;11.00;94.56
22580;BME280;11456;47.030;15.396;2022-10-13T02:52:40;98174.59;;;11.02;94.18
22580;BME280;11456;47.030;15.396;2022-10-13T02:55:06;98172.63;;;10.75;93.95
22580;BME280;11456;47.030;15.396;2022-10-13T02:57:33;98167.22;;;10.65;94.95
22580;BME280;11456;47.030;15.396;2022-10-13T03:00:00;98170.03;;;10.64;95.11
22580;BME280;11456;47.030;15.396;2022-10-13T03:02:26;98174.31;;;10.76;94.93
22580;BME280;11456;47.030;15.396;2022-10-13T03:04:53;98167.94;;;10.77;94.90
22580;BME280;11456;47.030;15.396;2022-10-13T03:07:20;98170.34;;;10.70;94.65
22580;BME280;11456;47.030;15.396;2022-10-13T03:09:46;98163.81;;;10.63;94.92
22580;BME280;11456;47.030;15.396;2022-10-13T03:12:13;98167.50;;;10.53;95.81
22580;BME280;11456;47.030;15.396;2022-10-13T03:14:39;98162.94;;;10.63;95.63
22580;BME280;11456;47.030;15.396;2022-10-13T03:17:06;98169.75;;;10.48;96.00
22580;BME280;11456;47.030;15.396;2022-10-13T03:19:38;98169.16;;;10.34;96.72
22580;BME280;11456;47.030;15.396;2022-10-13T03:22:05;98164.38;;;10.48;96.44
22580;BME280;11456;47.030;15.396;2022-10-13T03:24:31;98168.34;;;10.53;95.98
22580;BME280;11456;47.030;15.396;2022-10-13T03:26:58;98166.59;;;10.33;95.57
22580;BME280;11456;47.030;15.396;2022-10-13T03:29:24;98171.44;;;10.39;95.54
22580;BME280;11456;47.030;15.396;2022-10-13T03:31:51;98167.06;;;10.48;94.95
22580;BME280;11456;47.030;15.396;2022-10-13T03:34:17;98168.47;;;10.42;95.83
22580;BME280;11456;47.030;15.396;2022-10-13T03:36:45;98170.75;;;10.47;95.58
22580;BME280;11456;47.030;15.396;2022-10-13T03:39:12;98166.34;;;10.45;94.79
22580;BME280;11456;47.030;15.396;2022-10-13T03:41:39;98164.50;;;10.46;95.14
22580;BME280;11456;47.030;15.396;2022-10-13T03:44:05;98169.78;;;10.67;94.27
22580;BME280;11456;47.030;15.396;2022-10-13T03:46:32;98163.25;;;10.60;94.30
22580;BME280;11456;47.030;15.396;2022-10-13T03:48:59;98166.19;;;10.37;94.82
22580;BME280;11456;47.030;15.396;2022-10-13T03:51:28;98168.28;;;10.24;98.26
22580;BME280;11456;47.030;15.396;2022-10-13T03:53:54;98168.06;;;10.47;97.85
22580;BME280;11456;47.030;15.396;2022-10-13T03:56:25;98169.75;;;10.48;96.32
22580;BME280;11456;47.030;15.396;2022-10-13T03:58:52;98168.28;;;10.24;95.13
22580;BME280;11456;47.030;15.396;2022-10-13T04:01:20;98170.44;;;10.30;95.98
22580;BME280;11456;47.030;15.396;2022-10-13T04:03:48;98162.06;;;10.33;94.90
22580;BME280;11456;47.030;15.396;2022-10-13T04:06:15;98170.53;;;10.19;94.37
22580;BME280;11456;47.030;15.396;2022-10-13T04:08:41;98162.31;;;10.21;95.20
22580;BME280;11456;47.030;15.396;2022-10-13T04:11:09;98168.28;;;10.24;94.67
22580;BME280;11456;47.030;15.396;2022-10-13T04:13:38;98174.81;;;10.31;94.82
22580;BME280;11456;47.030;15.396;2022-10-13T04:16:07;98170.69;;;10.27;95.10
22580;BME280;11456;47.030;15.396;2022-10-13T04:18:34;98172.28;;;10.30;94.86
22580;BME280;11456;47.030;15.396;2022-10-13T04:21:00;98158.66;;;10.31;95.71
22580;BME280;11456;47.030;15.396;2022-10-13T04:23:27;98164.50;;;10.06;95.00
22580;BME280;11456;47.030;15.396;2022-10-13T04:25:53;98161.91;;;9.95;96.23
22580;BME280;11456;47.030;15.396;2022-10-13T04:28:21;98154.28;;;9.90;96.21
22580;BME280;11456;47.030;15.396;2022-10-13T04:30:48;98154.22;;;9.81;96.95
22580;BME280;11456;47.030;15.396;2022-10-13T04:33:15;98153.91;;;9.74;97.94
22580;BME280;11456;47.030;15.396;2022-10-13T04:35:41;98150.22;;;9.75;99.39
22580;BME280;11456;47.030;15.396;2022-10-13T04:38:08;98147.19;;;9.89;98.87
22580;BME280;11456;47.030;15.396;2022-10-13T04:40:34;98148.59;;;9.84;98.20
22580;BME280;11456;47.030;15.396;2022-10-13T04:43:01;98155.19;;;9.80;98.85
22580;BME280;11456;47.030;15.396;2022-10-13T04:45:27;98158.16;;;9.77;99.28
22580;BME280;11456;47.030;15.396;2022-10-13T04:47:54;98157.88;;;9.80;100.00
22580;BME280;11456;47.030;15.396;2022-10-13T04:50:21;98156.66;;;9.93;100.00
22580;BME280;11456;47.030;15.396;2022-10-13T04:52:57;98157.56;;;10.03;99.36
22580;BME280;11456;47.030;15.396;2022-10-13T04:55:23;98162.22;;;9.92;99.73
22580;BME280;11456;47.030;15.396;2022-10-13T04:57:50;98159.59;;;9.81;99.40
22580;BME280;11456;47.030;15.396;2022-10-13T05:00:16;98167.50;;;9.73;100.00
22580;BME280;11456;47.030;15.396;2022-10-13T05:02:43;98155.66;;;9.85;99.93
22580;BME280;11456;47.030;15.396;2022-10-13T05:05:09;98165.88;;;9.91;99.50
22580;BME280;11456;47.030;15.396;2022-10-13T05:07:36;98165.06;;;10.00;98.64
22580;BME280;11456;47.030;15.396;2022-10-13T05:10:02;98169.34;;;10.12;98.46
22580;BME280;11456;47.030;15.396;2022-10-13T05:12:29;98166.22;;;10.07;98.10
22580;BME280;11456;47.030;15.396;2022-10-13T05:14:56;98167.91;;;10.08;98.75
22580;BME280;11456;47.030;15.396;2022-10-13T05:17:23;98163.09;;;10.12;98.40
22580;BME280;11456;47.030;15.396;2022-10-13T05:19:49;98163.25;;;10.10;100.00
22580;BME280;11456;47.030;15.396;2022-10-13T05:22:16;98162.78;;;10.05;100.00
22580;BME280;11456;47.030;15.396;2022-10-13T05:24:42;98169.06;;;10.15;100.00
22580;BME280;11456;47.030;15.396;2022-10-13T05:27:11;98164.59;;;10.25;100.00
22580;BME280;11456;47.030;15.396;2022-10-13T05:29:38;98173.66;;;10.24;100.00
22580;BME280;11456;47.030;15.396;2022-10-13T05:32:05;98173.25;;;10.38;100.00
22580;BME280;11456;47.030;15.396;2022-10-13T05:34:31;98173.13;;;10.40;99.87
22580;BME280;11456;47.030;15.396;2022-10-13T05:36:58;98171.47;;;10.49;99.93
22580;BME280;11456;47.030;15.396;2022-10-13T05:39:25;98172.31;;;10.49;99.84
22580;BME280;11456;47.030;15.396;2022-10-13T05:41:52;98170.91;;;10.55;99.58
22580;BME280;11456;47.030;15.396;2022-10-13T05:44:18;98167.78;;;10.50;99.97
22580;BME280;11456;47.030;15.396;2022-10-13T05:46:51;98170.94;;;10.74;99.56
22580;BME280;11456;47.030;15.396;2022-10-13T05:49:18;98175.19;;;10.86;99.28
22580;BME280;11456;47.030;15.396;2022-10-13T05:51:46;98168.34;;;11.01;99.16
22580;BME280;11456;47.030;15.396;2022-10-13T05:56:53;98179.13;;;11.01;100.00
22580;BME280;11456;47.030;15.396;2022-10-13T05:59:23;98181.72;;;11.12;100.00
22580;BME280;11456;47.030;15.396;2022-10-13T06:01:52;98187.34;;;11.29;100.00
22580;BME280;11456;47.030;15.396;2022-10-13T06:04:22;98176.59;;;11.19;100.00
22580;BME280;11456;47.030;15.396;2022-10-13T06:06:50;98182.84;;;11.19;100.00
22580;BME280;11456;47.030;15.396;2022-10-13T06:09:16;98185.34;;;11.50;100.00
22580;BME280;11456;47.030;15.396;2022-10-13T06:11:43;98182.91;;;11.47;100.00
22580;BME280;11456;47.030;15.396;2022-10-13T06:14:09;98186.88;;;11.62;100.00
22580;BME280;11456;47.030;15.396;2022-10-13T06:16:36;98198.38;;;11.64;100.00
22580;BME280;11456;47.030;15.396;2022-10-13T06:19:03;98188.44;;;11.74;100.00
22580;BME280;11456;47.030;15.396;2022-10-13T06:21:30;98191.53;;;11.79;100.00
22580;BME280;11456;47.030;15.396;2022-10-13T06:23:56;98194.84;;;11.54;100.00
22580;BME280;11456;47.030;15.396;2022-10-13T06:26:23;98186.97;;;11.89;100.00
22580;BME280;11456;47.030;15.396;2022-10-13T06:28:49;98188.44;;;11.74;100.00
22580;BME280;11456;47.030;15.396;2022-10-13T06:31:22;98193.09;;;12.19;100.00
22580;BME280;11456;47.030;15.396;2022-10-13T06:33:48;98195.78;;;12.19;100.00
22580;BME280;11456;47.030;15.396;2022-10-13T06:36:15;98190.28;;;12.11;100.00
22580;BME280;11456;47.030;15.396;2022-10-13T06:38:41;98194.34;;;11.97;100.00
22580;BME280;11456;47.030;15.396;2022-10-13T06:41:08;98194.28;;;12.07;100.00
22580;BME280;11456;47.030;15.396;2022-10-13T06:43:34;98188.28;;;12.13;99.77
22580;BME280;11456;47.030;15.396;2022-10-13T06:46:09;98196.38;;;12.13;100.00
22580;BME280;11456;47.030;15.396;2022-10-13T06:48:36;98192.56;;;12.05;100.00
22580;BME280;11456;47.030;15.396;2022-10-13T06:51:03;98200.69;;;12.33;98.86
22580;BME280;11456;47.030;15.396;2022-10-13T06:53:30;98190.81;;;12.69;98.21
22580;BME280;11456;47.030;15.396;2022-10-13T06:55:57;98198.78;;;12.88;98.07
22580;BME280;11456;47.030;15.396;2022-10-13T06:58:24;98188.78;;;13.16;95.00
22580;BME280;11456;47.030;15.396;2022-10-13T07:00:50;98192.84;;;12.84;93.14
22580;BME280;11456;47.030;15.396;2022-10-13T07:03:17;98194.06;;;12.90;94.40
22580;BME280;11456;47.030;15.396;2022-10-13T07:05:43;98194.94;;;12.91;94.21
22580;BME280;11456;47.030;15.396;2022-10-13T07:08:10;98198.97;;;13.04;94.54
22580;BME280;11456;47.030;15.396;2022-10-13T07:10:36;98189.53;;;12.91;94.32
22580;BME280;11456;47.030;15.396;2022-10-13T07:13:03;98185.81;;;13.27;94.84
22580;BME280;11456;47.030;15.396;2022-10-13T07:15:32;98186.59;;;13.37;92.30
22580;BME280;11456;47.030;15.396;2022-10-13T07:17:59;98180.75;;;13.24;93.47
22580;BME280;11456;47.030;15.396;2022-10-13T07:20:26;98184.63;;;13.47;92.57
22580;BME280;11456;47.030;15.396;2022-10-13T07:22:53;98180.94;;;14.00;90.23
22580;BME280;11456;47.030;15.396;2022-10-13T07:25:20;98178.84;;;14.20;87.33
22580;BME280;11456;47.030;15.396;2022-10-13T07:27:46;98174.31;;;14.36;87.69
22580;BME280;11456;47.030;15.396;2022-10-13T07:30:13;98174.81;;;14.66;85.26
22580;BME280;11456;47.030;15.396;2022-10-13T07:32:39;98170.06;;;14.76;85.19
22580;BME280;11456;47.030;15.396;2022-10-13T07:35:08;98176.53;;;14.99;83.41
22580;BME280;11456;47.030;15.396;2022-10-13T07:37:35;98173.22;;;15.30;82.34
22580;BME280;11456;47.030;15.396;2022-10-13T07:40:05;98175.72;;;15.31;80.91
22580;BME280;11456;47.030;15.396;2022-10-13T07:42:32;98166.41;;;15.58;80.50
22580;BME280;11456;47.030;15.396;2022-10-13T07:44:59;98162.31;;;15.46;79.93
22580;BME280;11456;47.030;15.396;2022-10-13T07:47:27;98160.53;;;16.10;81.25
22580;BME280;11456;47.030;15.396;2022-10-13T07:49:53;98166.16;;;16.47;76.53
22580;BME280;11456;47.030;15.396;2022-10-13T07:52:21;98158.75;;;16.33;75.80
22580;BME280;11456;47.030;15.396;2022-10-13T07:54:48;98159.66;;;16.25;76.99
22580;BME280;11456;47.030;15.396;2022-10-13T07:57:15;98153.88;;;16.67;74.31
22580;BME280;11456;47.030;15.396;2022-10-13T07:59:41;98157.69;;;17.04;72.54
22580;BME280;11456;47.030;15.396;2022-10-13T08:02:11;98159.84;;;16.16;75.71
22580;BME280;11456;47.030;15.396;2022-10-13T08:04:38;98149.56;;;16.34;74.95
22580;BME280;11456;47.030;15.396;2022-10-13T08:07:04;98149.59;;;15.79;78.31
22580;BME280;11456;47.030;15.396;2022-10-13T08:09:31;98154.00;;;16.74;76.84
22580;BME280;11456;47.030;15.396;2022-10-13T08:11:58;98148.47;;;17.13;73.41
22580;BME280;11456;47.030;15.396;2022-10-13T08:14:27;98146.91;;;16.96;73.45
22580;BME280;11456;47.030;15.396;2022-10-13T08:16:54;98155.59;;;16.52;75.28
22580;BME280;11456;47.030;15.396;2022-10-13T08:19:21;98156.28;;;16.07;77.52
22580;BME280;11456;47.030;15.396;2022-10-13T08:21:47;98150.38;;;16.03;77.82
22580;BME280;11456;47.030;15.396;2022-10-13T08:24:34;98154.06;;;16.19;76.46
22580;BME280;11456;47.030;15.396;2022-10-13T08:27:01;98157.38;;;16.37;76.62
22580;BME280;11456;47.030;15.396;2022-10-13T08:29:27;98153.25;;;16.49;76.85
22580;BME280;11456;47.030;15.396;2022-10-13T08:31:54;98147.66;;;16.51;76.81
22580;BME280;11456;47.030;15.396;2022-10-13T08:34:21;98139.59;;;16.96;74.97
22580;BME280;11456;47.030;15.396;2022-10-13T08:36:48;98137.94;;;17.10;73.27
22580;BME280;11456;47.030;15.396;2022-10-13T08:39:19;98136.69;;;17.20;73.57
22580;BME280;11456;47.030;15.396;2022-10-13T08:41:46;98134.78;;;16.98;74.11
22580;BME280;11456;47.030;15.396;2022-10-13T08:49:50;98127.25;;;18.27;68.30
22580;BME280;11456;47.030;15.396;2022-10-13T08:52:23;98138.47;;;18.83;65.74
22580;BME280;11456;47.030;15.396;2022-10-13T08:54:51;98131.47;;;18.95;67.79
22580;BME280;11456;47.030;15.396;2022-10-13T08:57:19;98137.84;;;18.52;66.82
22580;BME280;11456;47.030;15.396;2022-10-13T08:59:47;98133.41;;;19.22;65.64
22580;BME280;11456;47.030;15.396;2022-10-13T09:02:21;98137.97;;;18.94;65.40
22580;BME280;11456;47.030;15.396;2022-10-13T09:04:49;98130.16;;;19.34;64.46
22580;BME280;11456;47.030;15.396;2022-10-13T09:07:18;98134.81;;;19.82;63.18
22580;BME280;11456;47.030;15.396;2022-10-13T09:09:51;98131.63;;;19.51;63.24
22580;BME280;11456;47.030;15.396;2022-10-13T09:12:18;98128.44;;;19.47;64.92
22580;BME280;11456;47.030;15.396;2022-10-13T09:17:30;98126.16;;;19.51;62.61
22580;BME280;11456;47.030;15.396;2022-10-13T09:30:23;98115.13;;;19.93;63.07
22580;BME280;11456;47.030;15.396;2022-10-13T09:32:55;98120.16;;;20.65;59.85
22580;BME280;11456;47.030;15.396;2022-10-13T09:35:24;98125.81;;;20.23;60.64
22580;BME280;11456;47.030;15.396;2022-10-13T09:38:03;98123.09;;;20.64;60.29
22580;BME280;11456;47.030;15.396;2022-10-13T09:40:30;98117.97;;;21.08;57.41
22580;BME280;11456;47.030;15.396;2022-10-13T09:42:57;98113.16;;;21.17;56.36
22580;BME280;11456;47.030;15.396;2022-10-13T09:45:25;98108.03;;;21.01;58.30
22580;BME280;11456;47.030;15.396;2022-10-13T09:47:53;98116.47;;;20.93;57.68
22580;BME280;11456;47.030;15.396;2022-10-13T09:50:24;98116.44;;;20.86;57.37
22580;BME280;11456;47.030;15.396;2022-10-13T09:52:52;98105.38;;;21.40;56.61
22580;BME280;11456;47.030;15.396;2022-10-13T09:55:25;98102.25;;;21.43;56.83
22580;BME280;11456;47.030;15.396;2022-10-13T09:58:04;98104.34;;;21.68;56.20
22580;BME280;11456;47.030;15.396;2022-10-13T10:00:32;98104.75;;;21.18;56.18
22580;BME280;11456;47.030;15.396;2022-10-13T10:05:46;98103.69;;;21.33;54.92
22580;BME280;11456;47.030;15.396;2022-10-13T10:08:20;98110.22;;;21.71;54.23
22580;BME280;11456;47.030;15.396;2022-10-13T10:10:59;98095.06;;;21.75;54.87
22580;BME280;11456;47.030;15.396;2022-10-13T10:13:27;98089.63;;;22.53;51.90
22580;BME280;11456;47.030;15.396;2022-10-13T10:15:59;98095.84;;;22.09;53.89
22580;BME280;11456;47.030;15.396;2022-10-13T10:18:30;98090.19;;;21.84;53.19
22580;BME280;11456;47.030;15.396;2022-10-13T10:21:11;98091.59;;;22.32;52.84
22580;BME280;11456;47.030;15.396;2022-10-13T10:23:45;98091.09;;;22.49;52.29
22580;BME280;11456;47.030;15.396;2022-10-13T10:26:16;98086.50;;;22.29;51.39
22580;BME280;11456;47.030;15.396;2022-10-13T10:29:00;98080.03;;;22.75;50.35
22580;BME280;11456;47.030;15.396;2022-10-13T10:31:45;98080.00;;;22.17;52.31
22580;BME280;11456;47.030;15.396;2022-10-13T10:36:52;98074.06;;;22.33;51.58
22580;BME280;11456;47.030;15.396;2022-10-13T10:39:27;98069.66;;;22.77;51.16
22580;BME280;11456;47.030;15.396;2022-10-13T10:42:02;98066.19;;;22.44;50.09
22580;BME280;11456;47.030;15.396;2022-10-13T10:44:33;98058.47;;;22.72;50.38
22580;BME280;11456;47.030;15.396;2022-10-13T10:47:04;98061.66;;;22.69;50.38
22580;BME280;11456;47.030;15.396;2022-10-13T10:49:33;98054.69;;;23.36;48.30
22580;BME280;11456;47.030;15.396;2022-10-13T10:52:00;98052.13;;;22.78;49.01
22580;BME280;11456;47.030;15.396;2022-10-13T10:59:58;98040.09;;;22.21;50.52
22580;BME280;11456;47.030;15.396;2022-10-13T11:05:13;98032.63;;;22.86;49.08
22580;BME280;11456;47.030;15.396;2022-10-13T11:15:21;98020.13;;;23.22;45.73
22580;BME280;11456;47.030;15.396;2022-10-13T11:17:49;98015.81;;;23.32;45.45
22580;BME280;11456;47.030;15.396;2022-10-13T11:22:42;98012.50;;;23.73;45.39
22580;BME280;11456;47.030;15.396;2022-10-13T11:28:26;98007.91;;;22.86;48.70
22580;BME280;11456;47.030;15.396;2022-10-13T11:30:54;97995.81;;;23.43;47.28
22580;BME280;11456;47.030;15.396;2022-10-13T11:38:47;97994.94;;;24.29;46.37
22580;BME280;11456;47.030;15.396;2022-10-13T11:41:20;97995.22;;;24.03;45.86
22580;BME280;11456;47.030;15.396;2022-10-13T11:54:48;97973.47;;;24.19;43.54
22580;BME280;11456;47.030;15.396;2022-10-13T11:57:17;97969.78;;;23.89;43.43
22580;BME280;11456;47.030;15.396;2022-10-13T11:59:45;97963.50;;;23.39;44.80
22580;BME280;11456;47.030;15.396;2022-10-13T12:02:13;97968.53;;;23.24;44.56
22580;BME280;11456;47.030;15.396;2022-10-13T12:04:45;97967.19;;;22.83;45.84
22580;BME280;11456;47.030;15.396;2022-10-13T12:07:24;97963.34;;;23.34;44.70
22580;BME280;11456;47.030;15.396;2022-10-13T12:09:55;97957.53;;;23.24;44.96
22580;BME280;11456;47.030;15.396;2022-10-13T12:12:22;97957.50;;;23.73;44.06
22580;BME280;11456;47.030;15.396;2022-10-13T12:14:50;97950.13;;;23.49;44.83
22580;BME280;11456;47.030;15.396;2022-10-13T12:19:49;97949.81;;;23.75;44.99
22580;BME280;11456;47.030;15.396;2022-10-13T12:22:16;97941.69;;;23.44;44.96
22580;BME280;11456;47.030;15.396;2022-10-13T12:24:42;97941.00;;;24.69;43.57
22580;BME280;11456;47.030;15.396;2022-10-13T12:27:21;97941.56;;;23.14;45.70
22580;BME280;11456;47.030;15.396;2022-10-13T12:29:48;97944.88;;;22.98;45.83
22580;BME280;11456;47.030;15.396;2022-10-13T12:32:22;97939.97;;;22.75;47.02
22580;BME280;11456;47.030;15.396;2022-10-13T12:34:48;97940.81;;;23.00;45.75
22580;BME280;11456;47.030;15.396;2022-10-13T12:39:48;97940.50;;;23.76;42.88
22580;BME280;11456;47.030;15.396;2022-10-13T12:42:15;97936.69;;;23.59;44.59
22580;BME280;11456;47.030;15.396;2022-10-13T12:44:42;97936.09;;;23.93;43.58
22580;BME280;11456;47.030;15.396;2022-10-13T12:47:34;97929.03;;;24.75;42.60
22580;BME280;11456;47.030;15.396;2022-10-13T12:50:19;97931.59;;;23.38;44.87
22580;BME280;11456;47.030;15.396;2022-10-13T12:52:41;97925.84;;;23.21;44.90
22580;BME280;11456;47.030;15.396;2022-10-13T12:55:11;97920.31;;;23.46;45.19
22580;BME280;11456;47.030;15.396;2022-10-13T12:57:39;97922.41;;;23.26;45.21
22580;BME280;11456;47.030;15.396;2022-10-13T13:03:04;97923.78;;;23.16;44.03
22580;BME280;11456;47.030;15.396;2022-10-13T13:05:37;97913.16;;;22.77;44.99
22580;BME280;11456;47.030;15.396;2022-10-13T13:08:05;97907.25;;;22.98;46.29
22580;BME280;11456;47.030;15.396;2022-10-13T13:10:56;97914.91;;;23.14;46.28
22580;BME280;11456;47.030;15.396;2022-10-13T13:13:23;97900.66;;;23.49;45.81
22580;BME280;11456;47.030;15.396;2022-10-13T13:15:50;97906.00;;;23.19;45.35
22580;BME280;11456;47.030;15.396;2022-10-13T13:20:50;97903.28;;;22.94;46.56
22580;BME280;11456;47.030;15.396;2022-10-13T13:23:16;97898.31;;;24.01;44.19
22580;BME280;11456;47.030;15.396;2022-10-13T13:25:46;97900.38;;;24.05;45.04
22580;BME280;11456;47.030;15.396;2022-10-13T13:28:13;97903.75;;;23.89;44.56
22580;BME280;11456;47.030;15.396;2022-10-13T13:30:40;97903.56;;;23.54;45.06
22580;BME280;11456;47.030;15.396;2022-10-13T13:33:07;97896.03;;;23.97;44.57
22580;BME280;11456;47.030;15.396;2022-10-13T13:35:35;97904.16;;;23.74;44.53
22580;BME280;11456;47.030;15.396;2022-10-13T13:38:02;97906.41;;;22.73;47.05
22580;BME280;11456;47.030;15.396;2022-10-13T13:40:29;97900.09;;;22.97;46.39
22580;BME280;11456;47.030;15.396;2022-10-13T13:42:56;97894.00;;;22.64;47.29
22580;BME280;11456;47.030;15.396;2022-10-13T13:45:32;97896.94;;;23.37;45.56
22580;BME280;11456;47.030;15.396;2022-10-13T13:48:00;97894.25;;;23.55;46.01
22580;BME280;11456;47.030;15.396;2022-10-13T13:50:29;97893.06;;;23.01;46.71
22580;BME280;11456;47.030;15.396;2022-10-13T13:52:57;97892.75;;;22.28;48.35
22580;BME280;11456;47.030;15.396;2022-10-13T13:55:24;97896.28;;;22.67;47.99
22580;BME280;11456;47.030;15.396;2022-10-13T13:57:50;97898.09;;;22.48;47.55
22580;BME280;11456;47.030;15.396;2022-10-13T14:00:17;97899.72;;;22.31;48.10
22580;BME280;11456;47.030;15.396;2022-10-13T14:02:47;97900.03;;;22.10;48.76
22580;BME280;11456;47.030;15.396;2022-10-13T14:05:14;97889.41;;;21.82;49.19
22580;BME280;11456;47.030;15.396;2022-10-13T14:07:40;97897.56;;;21.95;48.95
22580;BME280;11456;47.030;15.396;2022-10-13T14:10:07;97894.72;;;21.70;49.90
22580;BME280;11456;47.030;15.396;2022-10-13T14:12:34;97891.59;;;22.11;48.99
22580;BME280;11456;47.030;15.396;2022-10-13T14:15:01;97887.09;;;21.79;49.71
22580;BME280;11456;47.030;15.396;2022-10-13T14:17:28;97878.47;;;22.20;48.77
22580;BME280;11456;47.030;15.396;2022-10-13T14:19:54;97875.06;;;22.24;48.69
22580;BME280;11456;47.030;15.396;2022-10-13T14:22:21;97876.16;;;21.72;50.46
22580;BME280;11456;47.030;15.396;2022-10-13T14:24:48;97874.53;;;21.51;50.98
22580;BME280;11456;47.030;15.396;2022-10-13T14:27:15;97874.88;;;21.75;50.70
22580;BME280;11456;47.030;15.396;2022-10-13T14:29:41;97876.19;;;21.59;50.85